Time;durP1;ratioP1;P1;durP2;ratioP2;P2;SDS_P1;SDS_P2;PMS_P1;PMS_P2;Temp;Humidity;BMP_temperature;BMP_pressure;BME280_temperature;BME280_humidity;BME280_pressure;Samples;Min_cycle;Max_cycle;Signal;HPM_P1;HPM_P2
2022/07/10 00:01:23;;;;;;;0.10;0.10;;;16.30;99.90;;;;;;5051254;28;20041;-68
2022/07/10 00:03:49;;;;;;;0.17;0.17;;;16.30;99.90;;;;;;5069758;28;20058;-68
2022/07/10 00:06:16;;;;;;;0.20;0.10;;;16.20;99.90;;;;;;5091576;28;20032;-68
2022/07/10 00:08:42;;;;;;;0.10;0.10;;;16.20;99.90;;;;;;5076669;28;20090;-68
2022/07/10 00:11:08;;;;;;;6.03;0.30;;;16.20;99.90;;;;;;5072207;28;20056;-68
2022/07/10 00:13:34;;;;;;;0.35;0.35;;;16.10;99.90;;;;;;5072494;28;20062;-68
2022/07/10 00:16:01;;;;;;;0.13;0.13;;;16.10;99.90;;;;;;5072238;28;20094;-68
2022/07/10 00:18:30;;;;;;;0.08;0.08;;;16.10;99.90;;;;;;5069496;28;20072;-68
2022/07/10 00:20:56;;;;;;;0.10;0.10;;;16.10;99.90;;;;;;5073414;28;20071;-68
2022/07/10 00:23:21;;;;;;;0.00;0.00;;;16.10;99.90;;;;;;5083570;28;20079;-68
2022/07/10 00:25:47;;;;;;;0.00;0.00;;;16.00;99.90;;;;;;5046926;28;20164;-68
2022/07/10 00:28:13;;;;;;;0.10;0.10;;;16.00;99.90;;;;;;5050695;28;20041;-68
2022/07/10 00:30:38;;;;;;;0.08;0.08;;;16.10;99.90;;;;;;5066314;28;20049;-68
2022/07/10 00:33:04;;;;;;;1.98;0.43;;;16.10;99.90;;;;;;5076773;28;20411;-68
2022/07/10 00:35:30;;;;;;;0.00;0.00;;;16.10;99.90;;;;;;5081441;28;20123;-68
2022/07/10 00:37:55;;;;;;;0.10;0.10;;;16.10;99.90;;;;;;5072658;28;20131;-68
2022/07/10 00:40:21;;;;;;;0.03;0.03;;;16.10;99.90;;;;;;5083419;28;20044;-68
2022/07/10 00:42:47;;;;;;;0.25;0.15;;;16.10;99.90;;;;;;5049188;28;20048;-68
2022/07/10 00:45:12;;;;;;;0.20;0.20;;;16.10;99.90;;;;;;5063501;28;20042;-67
2022/07/10 00:47:38;;;;;;;0.10;0.10;;;16.10;99.90;;;;;;5089790;28;20048;-68
2022/07/10 00:50:06;;;;;;;0.00;0.00;;;16.10;99.90;;;;;;5089414;28;20050;-68
2022/07/10 00:52:35;;;;;;;0.15;0.15;;;16.10;99.90;;;;;;5089900;28;20056;-68
2022/07/10 00:55:01;;;;;;;0.10;0.10;;;16.10;99.90;;;;;;5085077;28;20066;-68
2022/07/10 00:57:27;;;;;;;0.10;0.10;;;16.20;99.90;;;;;;5061749;28;20082;-68
2022/07/10 00:59:53;;;;;;;0.00;0.00;;;16.10;99.90;;;;;;5052893;28;20033;-68
2022/07/10 01:02:19;;;;;;;0.00;0.00;;;16.10;99.90;;;;;;5049071;28;20114;-68
2022/07/10 01:04:44;;;;;;;0.50;0.40;;;16.10;99.90;;;;;;5066487;28;20044;-68
2022/07/10 01:07:10;;;;;;;0.00;0.00;;;16.10;99.90;;;;;;5068198;28;20138;-68
2022/07/10 01:09:37;;;;;;;0.00;0.00;;;16.10;99.90;;;;;;5057830;28;20048;-68
2022/07/10 01:12:03;;;;;;;0.10;0.10;;;16.10;99.90;;;;;;5089662;28;20663;-68
2022/07/10 01:14:30;;;;;;;0.10;0.10;;;16.20;99.90;;;;;;5071100;28;20040;-68
2022/07/10 01:16:58;;;;;;;0.00;0.00;;;16.20;99.90;;;;;;5069971;28;20067;-68
2022/07/10 01:19:24;;;;;;;0.13;0.13;;;16.10;99.90;;;;;;5071515;28;20776;-68
2022/07/10 01:21:50;;;;;;;0.00;0.00;;;16.10;99.90;;;;;;5083634;28;20090;-68
2022/07/10 01:24:15;;;;;;;0.10;0.10;;;16.10;99.90;;;;;;5062359;28;20049;-68
2022/07/10 01:26:42;;;;;;;0.10;0.10;;;16.10;99.90;;;;;;5049401;28;20037;-68
2022/07/10 01:29:09;;;;;;;0.10;0.10;;;16.10;99.90;;;;;;5049075;28;20109;-68
2022/07/10 01:31:35;;;;;;;0.00;0.00;;;16.10;99.90;;;;;;5042054;28;20084;-68
2022/07/10 01:34:04;;;;;;;0.10;0.10;;;16.10;99.90;;;;;;5086345;28;20551;-68
2022/07/10 01:36:29;;;;;;;0.00;0.00;;;16.10;99.90;;;;;;5066046;28;20056;-68
2022/07/10 01:38:56;;;;;;;0.05;0.05;;;16.10;99.90;;;;;;5048208;28;20052;-68
2022/07/10 01:41:23;;;;;;;0.00;0.00;;;16.10;99.90;;;;;;5049128;28;20076;-67
2022/07/10 01:43:49;;;;;;;0.00;0.00;;;16.10;99.90;;;;;;5031451;28;20463;-67
2022/07/10 01:46:15;;;;;;;0.10;0.10;;;16.10;99.90;;;;;;5051602;28;20076;-67
2022/07/10 01:48:41;;;;;;;0.00;0.00;;;16.10;99.90;;;;;;5088927;28;20377;-68
2022/07/10 01:51:08;;;;;;;0.10;0.10;;;16.10;99.90;;;;;;5085357;28;20497;-68
2022/07/10 01:53:34;;;;;;;0.10;0.10;;;16.20;99.90;;;;;;5070455;28;20032;-67
2022/07/10 01:56:02;;;;;;;0.10;0.10;;;16.20;99.90;;;;;;5054489;28;20085;-67
2022/07/10 01:58:28;;;;;;;0.05;0.05;;;16.20;99.90;;;;;;5086935;28;20044;-68
2022/07/10 02:00:54;;;;;;;0.43;0.43;;;16.20;99.90;;;;;;5069298;28;20048;-67
2022/07/10 02:06:04;;;;;;;0.95;0.65;;;16.20;99.90;;;;;;5063715;28;20404;-68
2022/07/10 02:08:29;;;;;;;0.10;0.10;;;16.20;99.90;;;;;;5047427;28;20052;-68
2022/07/10 02:10:55;;;;;;;0.10;0.10;;;16.10;99.90;;;;;;5030505;28;20699;-68
2022/07/10 02:13:20;;;;;;;0.00;0.00;;;16.20;99.90;;;;;;5067471;28;20043;-68
2022/07/10 02:15:50;;;;;;;0.00;0.00;;;16.20;99.90;;;;;;5072372;28;20549;-68
2022/07/10 02:18:15;;;;;;;0.00;0.00;;;16.10;99.90;;;;;;5076210;28;20036;-68
2022/07/10 02:20:41;;;;;;;0.35;0.35;;;16.10;99.90;;;;;;5088735;28;20637;-68
2022/07/10 02:23:07;;;;;;;0.10;0.10;;;16.10;99.90;;;;;;5088511;28;20059;-68
2022/07/10 02:25:33;;;;;;;0.60;0.60;;;16.10;99.90;;;;;;5070445;28;20527;-68
2022/07/10 02:27:59;;;;;;;0.10;0.10;;;16.20;99.90;;;;;;5055837;28;20402;-68
2022/07/10 02:30:25;;;;;;;0.00;0.00;;;16.10;99.90;;;;;;5070307;28;20096;-68
2022/07/10 02:32:51;;;;;;;0.08;0.08;;;16.10;99.90;;;;;;5077055;28;20119;-68
2022/07/10 02:35:16;;;;;;;0.10;0.10;;;16.20;99.90;;;;;;5076598;28;20046;-68
2022/07/10 02:37:42;;;;;;;0.00;0.00;;;16.20;99.90;;;;;;5087490;28;20483;-67
2022/07/10 02:40:08;;;;;;;0.00;0.00;;;16.20;99.90;;;;;;5087833;28;20044;-68
2022/07/10 02:42:33;;;;;;;0.08;0.08;;;16.20;99.90;;;;;;5088741;28;20476;-68
2022/07/10 02:44:59;;;;;;;0.00;0.00;;;16.10;99.90;;;;;;5082679;28;20039;-69
2022/07/10 02:47:25;;;;;;;0.08;0.08;;;16.20;99.90;;;;;;5061147;28;20047;-67
2022/07/10 02:49:50;;;;;;;0.00;0.00;;;16.20;99.90;;;;;;5088714;28;20097;-68
2022/07/10 02:52:16;;;;;;;0.00;0.00;;;16.10;99.90;;;;;;5065475;28;20044;-68
2022/07/10 02:54:41;;;;;;;0.00;0.00;;;16.10;99.90;;;;;;5084211;28;20048;-67
2022/07/10 02:57:07;;;;;;;0.20;0.20;;;16.10;99.90;;;;;;5048308;28;20037;-68
2022/07/10 02:59:33;;;;;;;0.00;0.00;;;16.10;99.90;;;;;;5046924;28;20044;-67
2022/07/10 03:01:58;;;;;;;0.00;0.00;;;16.00;99.90;;;;;;5065496;28;20095;-68
2022/07/10 03:04:24;;;;;;;0.00;0.00;;;16.10;99.90;;;;;;5068130;28;20037;-68
2022/07/10 03:06:50;;;;;;;0.08;0.08;;;16.10;99.90;;;;;;5067822;28;20496;-68
2022/07/10 03:09:15;;;;;;;0.20;0.20;;;16.10;99.90;;;;;;5069152;28;20692;-68
2022/07/10 03:11:41;;;;;;;0.40;0.40;;;16.10;99.90;;;;;;5069759;28;20060;-68
2022/07/10 03:14:06;;;;;;;0.08;0.08;;;16.00;99.90;;;;;;5072466;28;20039;-68
2022/07/10 03:16:32;;;;;;;3.20;0.45;;;16.00;99.90;;;;;;5067734;28;20507;-68
2022/07/10 03:18:57;;;;;;;0.00;0.00;;;15.90;99.90;;;;;;5068020;28;20404;-68
2022/07/10 03:21:23;;;;;;;0.52;0.30;;;15.80;99.90;;;;;;5048643;28;20049;-68
2022/07/10 03:23:50;;;;;;;0.00;0.00;;;15.80;99.90;;;;;;5088665;28;20577;-68
2022/07/10 03:26:15;;;;;;;0.00;0.00;;;15.80;99.90;;;;;;5066715;28;20488;-68
2022/07/10 03:28:41;;;;;;;0.08;0.08;;;15.80;99.90;;;;;;5069701;28;20064;-68
2022/07/10 03:31:07;;;;;;;0.30;0.30;;;15.80;99.90;;;;;;5067969;28;20051;-68
2022/07/10 03:33:33;;;;;;;0.00;0.00;;;15.90;99.90;;;;;;5068304;28;20041;-68
2022/07/10 03:36:00;;;;;;;0.00;0.00;;;15.80;99.90;;;;;;5059587;28;20040;-67
2022/07/10 03:38:26;;;;;;;0.10;0.10;;;15.90;99.90;;;;;;5088301;28;20076;-68
2022/07/10 03:40:52;;;;;;;0.08;0.08;;;15.90;99.90;;;;;;5070401;28;20087;-68
2022/07/10 03:43:18;;;;;;;0.10;0.10;;;15.80;99.90;;;;;;5070781;28;20040;-68
2022/07/10 03:45:43;;;;;;;0.10;0.10;;;15.80;99.90;;;;;;5046307;28;20033;-67
2022/07/10 03:48:09;;;;;;;0.22;0.22;;;15.90;99.90;;;;;;5077312;28;20450;-68
2022/07/10 03:50:34;;;;;;;0.00;0.00;;;15.80;99.90;;;;;;5087507;28;20060;-67
2022/07/10 03:53:00;;;;;;;0.00;0.00;;;15.80;99.90;;;;;;5086751;28;20048;-67
2022/07/10 03:55:26;;;;;;;0.10;0.10;;;15.80;99.90;;;;;;5079098;28;20045;-67
2022/07/10 03:57:54;;;;;;;0.00;0.00;;;15.80;99.90;;;;;;5068423;28;20423;-67
2022/07/10 04:00:25;;;;;;;0.10;0.10;;;15.80;99.90;;;;;;5089483;28;20117;-67
2022/07/10 04:03:02;;;;;;;0.25;0.25;;;15.90;99.90;;;;;;5091309;28;20051;-67
2022/07/10 04:05:29;;;;;;;0.32;0.32;;;15.90;99.90;;;;;;5072268;28;20499;-68
2022/07/10 04:07:59;;;;;;;0.00;0.00;;;15.90;99.90;;;;;;5091770;28;20035;-67
2022/07/10 04:10:26;;;;;;;0.00;0.00;;;15.90;99.90;;;;;;5069457;28;20044;-67
2022/07/10 04:12:51;;;;;;;0.00;0.00;;;15.90;99.90;;;;;;5091731;28;20040;-68
2022/07/10 04:15:17;;;;;;;0.10;0.10;;;15.90;99.90;;;;;;5079429;28;20404;-68
2022/07/10 04:17:43;;;;;;;0.03;0.03;;;15.90;99.90;;;;;;5072567;28;20051;-68
2022/07/10 04:20:09;;;;;;;0.00;0.00;;;15.90;99.90;;;;;;5089367;28;20052;-68
2022/07/10 04:22:35;;;;;;;0.15;0.15;;;15.90;99.90;;;;;;5050602;28;20067;-68
2022/07/10 04:25:01;;;;;;;0.00;0.00;;;15.90;99.90;;;;;;5073079;28;20032;-68
2022/07/10 04:27:27;;;;;;;0.00;0.00;;;15.90;99.90;;;;;;5089513;28;20051;-68
2022/07/10 04:29:53;;;;;;;0.20;0.20;;;15.90;99.90;;;;;;5073052;28;20035;-68
2022/07/10 04:32:19;;;;;;;0.00;0.00;;;15.90;99.90;;;;;;5090270;28;20094;-68
2022/07/10 04:34:44;;;;;;;0.22;0.22;;;15.90;99.90;;;;;;5081398;28;20047;-67
2022/07/10 04:37:10;;;;;;;0.00;0.00;;;15.90;99.90;;;;;;5070307;28;20088;-68
2022/07/10 04:39:37;;;;;;;0.00;0.00;;;16.00;99.90;;;;;;5062081;28;20048;-68
2022/07/10 04:42:03;;;;;;;0.10;0.10;;;16.00;99.90;;;;;;5054523;28;20542;-67
2022/07/10 04:44:29;;;;;;;0.10;0.10;;;16.00;99.90;;;;;;5070065;28;20090;-67
2022/07/10 04:46:55;;;;;;;0.00;0.00;;;16.00;99.90;;;;;;5050407;28;20412;-68
2022/07/10 04:49:21;;;;;;;0.00;0.00;;;16.00;99.90;;;;;;5069779;28;20055;-68
2022/07/10 04:51:46;;;;;;;0.00;0.00;;;16.10;99.90;;;;;;5070230;28;20056;-67
2022/07/10 04:54:12;;;;;;;0.00;0.00;;;16.10;99.90;;;;;;5050688;28;20055;-68
2022/07/10 04:56:38;;;;;;;0.00;0.00;;;16.10;99.90;;;;;;5081730;28;20053;-67
2022/07/10 04:59:03;;;;;;;0.70;0.70;;;16.10;99.90;;;;;;5054553;28;20051;-67
2022/07/10 05:01:29;;;;;;;0.00;0.00;;;16.10;99.90;;;;;;5088985;28;20491;-67
2022/07/10 05:03:54;;;;;;;0.00;0.00;;;16.10;99.90;;;;;;5072189;28;20052;-67
2022/07/10 05:06:20;;;;;;;0.10;0.10;;;16.10;99.90;;;;;;5081177;28;20343;-67
2022/07/10 05:08:46;;;;;;;0.00;0.00;;;16.10;99.90;;;;;;5090371;28;20040;-67
2022/07/10 05:11:11;;;;;;;0.00;0.00;;;16.10;99.90;;;;;;5088818;28;20131;-67
2022/07/10 05:13:37;;;;;;;0.00;0.00;;;16.00;99.90;;;;;;5053660;28;20136;-67
2022/07/10 05:16:06;;;;;;;0.00;0.00;;;16.00;99.90;;;;;;5073360;28;20051;-67
2022/07/10 05:18:31;;;;;;;0.15;0.15;;;16.00;99.90;;;;;;5052111;28;20075;-67
2022/07/10 05:20:57;;;;;;;0.10;0.10;;;15.90;99.90;;;;;;5050522;28;20472;-67
2022/07/10 05:23:23;;;;;;;0.00;0.00;;;15.90;99.90;;;;;;5071735;28;20072;-68
2022/07/10 05:25:49;;;;;;;0.00;0.00;;;15.90;99.90;;;;;;5066588;28;20057;-67
2022/07/10 05:28:15;;;;;;;0.00;0.00;;;15.90;99.90;;;;;;5030856;28;20238;-67
2022/07/10 05:30:41;;;;;;;0.00;0.00;;;15.90;99.90;;;;;;5070584;28;20044;-67
2022/07/10 05:33:07;;;;;;;0.05;0.05;;;15.90;99.90;;;;;;5071569;28;20109;-67
2022/07/10 05:35:33;;;;;;;0.15;0.15;;;15.90;99.90;;;;;;5082883;28;20691;-67
2022/07/10 05:37:58;;;;;;;0.00;0.00;;;15.90;99.90;;;;;;5071141;28;20044;-68
2022/07/10 05:40:24;;;;;;;0.10;0.10;;;15.90;99.90;;;;;;5089547;28;20044;-67
2022/07/10 05:42:50;;;;;;;0.00;0.00;;;15.90;99.90;;;;;;5089431;28;20067;-67
2022/07/10 05:45:16;;;;;;;0.20;0.20;;;15.90;99.90;;;;;;5068790;28;20063;-67
2022/07/10 05:47:41;;;;;;;0.10;0.10;;;15.80;99.90;;;;;;5067148;28;20055;-67
2022/07/10 05:50:08;;;;;;;0.00;0.00;;;15.90;99.90;;;;;;5035453;28;20041;-67
2022/07/10 05:52:33;;;;;;;0.00;0.00;;;15.90;99.90;;;;;;5072749;28;20111;-67
2022/07/10 05:54:59;;;;;;;0.00;0.00;;;15.90;99.90;;;;;;5080297;28;20131;-67
2022/07/10 05:57:25;;;;;;;0.17;0.17;;;16.00;99.90;;;;;;5084755;28;20047;-67
2022/07/10 05:59:51;;;;;;;0.05;0.05;;;16.10;99.90;;;;;;5088380;28;20047;-67
2022/07/10 06:02:16;;;;;;;0.00;0.00;;;16.10;99.90;;;;;;5054287;28;20049;-67
2022/07/10 06:04:42;;;;;;;0.10;0.10;;;16.20;99.90;;;;;;5068715;28;20043;-67
2022/07/10 06:07:08;;;;;;;0.00;0.00;;;16.30;99.90;;;;;;5052872;28;20047;-67
2022/07/10 06:09:34;;;;;;;7.40;1.30;;;16.30;99.90;;;;;;5070137;28;20119;-67
2022/07/10 06:12:00;;;;;;;0.00;0.00;;;16.40;99.90;;;;;;5071147;28;20048;-67
2022/07/10 06:14:26;;;;;;;0.38;0.38;;;16.40;99.90;;;;;;5084394;28;20040;-67
2022/07/10 06:16:51;;;;;;;0.10;0.10;;;16.40;99.90;;;;;;5075497;28;20062;-67
2022/07/10 06:19:18;;;;;;;0.00;0.00;;;16.30;99.90;;;;;;5066497;28;20049;-67
2022/07/10 06:21:44;;;;;;;0.00;0.00;;;16.30;99.90;;;;;;5073489;28;20040;-68
2022/07/10 06:24:10;;;;;;;0.00;0.00;;;16.30;99.90;;;;;;5055105;28;20060;-68
2022/07/10 06:26:35;;;;;;;0.10;0.10;;;16.40;99.90;;;;;;5055799;28;20048;-67
2022/07/10 06:29:01;;;;;;;0.13;0.13;;;16.40;99.90;;;;;;5085959;28;20063;-67
2022/07/10 06:31:27;;;;;;;0.00;0.00;;;16.30;99.90;;;;;;5082238;28;20431;-67
2022/07/10 06:33:52;;;;;;;0.20;0.20;;;16.30;99.90;;;;;;5049301;28;20610;-67
2022/07/10 06:36:18;;;;;;;0.10;0.10;;;16.30;99.90;;;;;;5075814;28;20119;-67
2022/07/10 06:38:44;;;;;;;0.35;0.35;;;16.30;99.90;;;;;;5074876;28;20049;-67
2022/07/10 06:41:09;;;;;;;0.00;0.00;;;16.30;99.90;;;;;;5071769;28;20488;-67
2022/07/10 06:43:35;;;;;;;0.90;0.68;;;16.30;99.90;;;;;;5055320;28;20044;-67
2022/07/10 06:46:01;;;;;;;0.10;0.10;;;16.30;99.90;;;;;;5069479;28;20040;-67
2022/07/10 06:48:27;;;;;;;0.00;0.00;;;16.30;99.90;;;;;;5063919;28;20045;-67
2022/07/10 06:50:53;;;;;;;2.85;1.40;;;16.30;99.90;;;;;;5047826;28;20041;-67
2022/07/10 06:53:23;;;;;;;0.20;0.20;;;16.20;99.90;;;;;;5081938;28;20036;-67
2022/07/10 06:55:50;;;;;;;0.00;0.00;;;16.20;99.90;;;;;;5067062;28;20143;-67
2022/07/10 06:58:16;;;;;;;0.40;0.40;;;16.20;99.90;;;;;;5067805;28;20115;-67
2022/07/10 07:00:41;;;;;;;0.20;0.20;;;16.30;99.90;;;;;;5066894;28;20484;-67
2022/07/10 07:03:07;;;;;;;0.00;0.00;;;16.20;99.90;;;;;;5084426;28;20051;-67
2022/07/10 07:05:32;;;;;;;0.10;0.10;;;16.20;99.90;;;;;;5071389;28;20374;-67
2022/07/10 07:07:58;;;;;;;0.05;0.05;;;16.30;99.90;;;;;;5057721;28;20144;-67
2022/07/10 07:10:24;;;;;;;0.00;0.00;;;16.30;99.90;;;;;;5057681;28;20090;-67
2022/07/10 07:12:49;;;;;;;0.00;0.00;;;16.30;99.90;;;;;;5043494;28;20520;-67
2022/07/10 07:15:16;;;;;;;0.00;0.00;;;16.20;99.90;;;;;;5060663;28;20040;-67
2022/07/10 07:18:07;;;;;;;0.20;0.20;;;16.30;99.90;;;;;;5058457;28;20127;-66
2022/07/10 07:23:22;;;;;;;0.10;0.10;;;16.30;99.90;;;;;;5060077;28;20048;-68
2022/07/10 07:25:48;;;;;;;0.10;0.10;;;16.30;99.90;;;;;;5056452;28;20041;-69
2022/07/10 07:28:15;;;;;;;0.08;0.08;;;16.30;99.90;;;;;;5053417;28;20893;-69
2022/07/10 07:30:44;;;;;;;0.10;0.10;;;16.30;99.90;;;;;;5041944;28;20078;-67
2022/07/10 07:33:10;;;;;;;0.00;0.00;;;16.40;99.90;;;;;;5055485;28;20036;-68
2022/07/10 07:35:36;;;;;;;0.00;0.00;;;16.40;99.90;;;;;;5065844;28;20044;-67
2022/07/10 07:38:03;;;;;;;0.00;0.00;;;16.40;99.90;;;;;;5070947;28;20508;-69
2022/07/10 07:40:28;;;;;;;0.00;0.00;;;16.40;99.90;;;;;;5057920;28;20052;-69
2022/07/10 07:42:55;;;;;;;0.05;0.05;;;16.40;99.90;;;;;;5054841;28;20041;-68
2022/07/10 07:45:22;;;;;;;0.00;0.00;;;16.40;99.90;;;;;;5070975;28;20384;-69
2022/07/10 07:47:53;;;;;;;0.00;0.00;;;16.40;99.90;;;;;;5057284;28;20075;-69
2022/07/10 07:50:23;;;;;;;0.00;0.00;;;16.50;99.90;;;;;;5057290;28;20124;-68
2022/07/10 07:52:49;;;;;;;0.00;0.00;;;16.50;99.90;;;;;;5054286;28;20050;-69
2022/07/10 07:55:17;;;;;;;0.00;0.00;;;16.60;99.90;;;;;;5078264;28;20155;-69
2022/07/10 07:57:43;;;;;;;0.10;0.10;;;16.70;99.90;;;;;;5070227;28;20044;-69
2022/07/10 08:00:10;;;;;;;0.00;0.00;;;16.80;99.90;;;;;;5040084;28;20041;-68
2022/07/10 08:02:36;;;;;;;0.00;0.00;;;16.90;99.90;;;;;;5053550;28;20044;-69
2022/07/10 08:05:04;;;;;;;0.10;0.10;;;17.10;99.90;;;;;;5092532;28;20411;-68
2022/07/10 08:07:44;;;;;;;0.00;0.00;;;17.20;99.90;;;;;;5065567;28;20048;-68
2022/07/10 08:10:13;;;;;;;0.35;0.13;;;17.30;99.90;;;;;;5082151;28;20044;-68
2022/07/10 08:12:40;;;;;;;0.00;0.00;;;17.10;99.90;;;;;;5071730;28;20045;-68
2022/07/10 08:15:10;;;;;;;0.10;0.10;;;17.00;99.90;;;;;;5045784;28;20047;-69
2022/07/10 08:17:36;;;;;;;0.00;0.00;;;17.00;99.90;;;;;;5081989;28;20051;-69
2022/07/10 08:20:03;;;;;;;0.10;0.10;;;16.90;99.90;;;;;;5090216;28;20115;-69
2022/07/10 08:22:29;;;;;;;0.00;0.00;;;16.80;99.90;;;;;;5058648;28;20143;-68
2022/07/10 08:24:56;;;;;;;0.10;0.10;;;16.80;99.90;;;;;;5062035;28;20127;-68
2022/07/10 08:27:22;;;;;;;0.95;0.52;;;16.80;99.90;;;;;;5073188;28;20040;-69
2022/07/10 08:29:47;;;;;;;0.00;0.00;;;16.80;99.90;;;;;;5069070;28;20857;-68
2022/07/10 08:32:13;;;;;;;0.17;0.17;;;16.80;99.90;;;;;;5074580;28;20043;-68
2022/07/10 08:34:39;;;;;;;0.00;0.00;;;16.80;99.90;;;;;;5075644;28;20028;-68
2022/07/10 08:37:04;;;;;;;0.10;0.10;;;16.80;99.90;;;;;;5078955;28;20047;-68
2022/07/10 08:39:31;;;;;;;0.10;0.10;;;16.90;99.90;;;;;;5092121;28;20043;-68
2022/07/10 08:41:57;;;;;;;0.32;0.22;;;16.90;99.90;;;;;;5052982;28;20106;-69
2022/07/10 08:44:23;;;;;;;0.10;0.10;;;16.90;99.90;;;;;;5071872;28;20051;-68
2022/07/10 08:46:49;;;;;;;0.00;0.00;;;16.80;99.90;;;;;;5091648;28;20044;-68
2022/07/10 08:49:16;;;;;;;0.00;0.00;;;16.80;99.90;;;;;;5086323;28;20047;-68
2022/07/10 08:51:54;;;;;;;0.10;0.10;;;16.80;99.90;;;;;;5076770;28;20129;-68
2022/07/10 08:54:20;;;;;;;0.73;0.43;;;16.80;99.90;;;;;;5061895;28;20052;-68
2022/07/10 08:56:47;;;;;;;0.00;0.00;;;16.70;99.90;;;;;;5069526;28;20052;-68
2022/07/10 08:59:14;;;;;;;0.20;0.20;;;16.70;99.90;;;;;;5067719;28;20032;-68
2022/07/10 09:01:40;;;;;;;0.00;0.00;;;16.70;99.90;;;;;;5076495;28;20068;-68
2022/07/10 09:04:05;;;;;;;0.10;0.10;;;16.80;99.90;;;;;;5091898;28;20036;-68
2022/07/10 09:06:31;;;;;;;11.38;0.40;;;16.90;99.90;;;;;;5091351;28;20059;-68
2022/07/10 09:09:04;;;;;;;0.10;0.10;;;17.00;99.90;;;;;;5088639;28;20047;-68
2022/07/10 09:11:31;;;;;;;0.00;0.00;;;17.20;99.90;;;;;;5070961;28;20051;-68
2022/07/10 09:14:07;;;;;;;0.00;0.00;;;17.30;99.90;;;;;;5067441;28;20043;-68
2022/07/10 09:16:38;;;;;;;0.30;0.30;;;17.30;99.90;;;;;;5071590;28;20052;-68
2022/07/10 09:19:19;;;;;;;0.35;0.35;;;17.30;99.90;;;;;;5071284;28;20399;-68
2022/07/10 09:21:47;;;;;;;0.10;0.10;;;17.40;99.90;;;;;;5073703;28;20044;-68
2022/07/10 09:24:13;;;;;;;0.00;0.00;;;17.50;99.90;;;;;;5066493;28;20131;-69
2022/07/10 09:26:42;;;;;;;0.10;0.10;;;17.60;99.90;;;;;;5090603;28;20126;-69
2022/07/10 09:29:12;;;;;;;4.13;1.27;;;17.50;99.90;;;;;;5078757;28;20116;-68
2022/07/10 09:31:55;;;;;;;0.00;0.00;;;17.50;99.90;;;;;;5046134;28;20056;-68
2022/07/10 09:34:43;;;;;;;0.38;0.30;;;17.40;99.90;;;;;;5050258;28;20094;-69
2022/07/10 09:37:29;;;;;;;0.00;0.00;;;17.40;99.90;;;;;;5056248;28;20044;-68
2022/07/10 09:39:58;;;;;;;0.00;0.00;;;17.40;99.90;;;;;;5061898;28;20159;-68
2022/07/10 09:42:31;;;;;;;0.28;0.20;;;17.50;99.90;;;;;;5060666;28;20044;-68
2022/07/10 09:45:16;;;;;;;0.10;0.10;;;17.60;99.90;;;;;;5081968;28;20054;-68
2022/07/10 09:47:54;;;;;;;0.00;0.00;;;17.70;99.90;;;;;;5069146;28;20052;-68
2022/07/10 09:50:29;;;;;;;0.00;0.00;;;17.80;99.90;;;;;;5064952;28;20045;-68
2022/07/10 09:52:59;;;;;;;0.00;0.00;;;17.80;99.90;;;;;;5072799;28;20055;-67
2022/07/10 09:55:31;;;;;;;0.00;0.00;;;17.70;99.90;;;;;;5057366;28;20037;-68
2022/07/10 09:58:01;;;;;;;0.00;0.00;;;17.60;99.90;;;;;;5052322;28;20089;-68
2022/07/10 10:00:32;;;;;;;0.00;0.00;;;17.60;99.90;;;;;;5035853;28;20127;-68
2022/07/10 10:03:02;;;;;;;0.10;0.10;;;17.60;99.90;;;;;;5061190;28;20057;-68
2022/07/10 10:05:37;;;;;;;0.20;0.20;;;17.60;99.90;;;;;;5032813;28;20056;-68
2022/07/10 10:08:17;;;;;;;0.22;0.22;;;17.50;99.90;;;;;;5049692;28;20101;-67
2022/07/10 10:10:47;;;;;;;0.00;0.00;;;17.60;99.90;;;;;;5060802;28;20071;-68
2022/07/10 10:13:22;;;;;;;0.03;0.03;;;17.60;99.90;;;;;;5062904;28;20041;-67
2022/07/10 10:15:49;;;;;;;0.45;0.45;;;17.60;99.90;;;;;;5052560;28;20041;-67
2022/07/10 10:18:22;;;;;;;0.00;0.00;;;17.60;99.90;;;;;;5089750;28;20043;-68
2022/07/10 10:20:50;;;;;;;0.10;0.10;;;17.50;99.90;;;;;;5062561;28;20048;-68
2022/07/10 10:23:20;;;;;;;0.00;0.00;;;17.40;99.90;;;;;;5055113;28;20053;-68
2022/07/10 10:25:46;;;;;;;0.10;0.10;;;17.40;99.90;;;;;;5080966;28;20075;-70
2022/07/10 10:28:13;;;;;;;0.00;0.00;;;17.40;99.90;;;;;;5059532;28;20041;-67
2022/07/10 10:30:42;;;;;;;0.38;0.38;;;17.30;99.90;;;;;;5055702;28;20841;-68
2022/07/10 10:33:42;;;;;;;0.00;0.00;;;17.40;99.90;;;;;;5063043;28;20048;-68
2022/07/10 10:36:13;;;;;;;0.13;0.13;;;17.40;99.90;;;;;;5049508;28;20044;-69
2022/07/10 10:38:46;;;;;;;0.10;0.10;;;17.40;99.90;;;;;;5032366;28;20061;-68
2022/07/10 10:41:27;;;;;;;0.20;0.20;;;17.40;99.90;;;;;;5053665;28;20063;-68
2022/07/10 10:44:16;;;;;;;0.08;0.08;;;17.50;99.90;;;;;;5085763;28;20102;-68
2022/07/10 10:46:54;;;;;;;0.00;0.00;;;17.50;99.90;;;;;;5061408;28;20136;-68
2022/07/10 10:49:20;;;;;;;0.20;0.20;;;17.60;99.90;;;;;;5078024;28;20060;-67
2022/07/10 10:52:09;;;;;;;0.22;0.22;;;17.70;99.90;;;;;;5073779;28;20048;-68
2022/07/10 10:55:07;;;;;;;0.10;0.10;;;17.60;99.90;;;;;;5082933;28;20056;-68
2022/07/10 10:57:36;;;;;;;0.03;0.03;;;17.70;99.90;;;;;;5050974;28;20063;-68
2022/07/10 11:00:07;;;;;;;0.10;0.10;;;17.70;99.90;;;;;;5077424;28;20131;-68
2022/07/10 11:02:34;;;;;;;0.00;0.00;;;17.70;99.90;;;;;;5064168;28;20052;-68
2022/07/10 11:05:18;;;;;;;0.00;0.00;;;17.70;99.90;;;;;;5054068;28;20385;-68
2022/07/10 11:08:02;;;;;;;;;;;17.80;99.90;;;;;;5084525;28;20040;-69
2022/07/10 11:10:36;;;;;;;0.00;0.00;;;17.80;99.90;;;;;;5057419;28;19935;-68
2022/07/10 11:13:16;;;;;;;0.00;0.00;;;17.90;99.90;;;;;;5065260;28;20049;-69
2022/07/10 11:15:43;;;;;;;0.00;0.00;;;17.90;99.90;;;;;;5078311;28;20056;-68
2022/07/10 11:18:12;;;;;;;0.00;0.00;;;17.90;99.90;;;;;;5070388;28;20057;-68
2022/07/10 11:20:46;;;;;;;0.32;0.32;;;17.90;99.90;;;;;;5061980;28;20056;-68
2022/07/10 11:23:17;;;;;;;;;;;17.90;99.90;;;;;;5054656;28;20052;-69
2022/07/10 11:26:01;;;;;;;8.10;1.88;;;17.90;99.90;;;;;;5060904;28;20383;-68
2022/07/10 11:28:47;;;;;;;;;;;17.90;99.90;;;;;;5082033;28;20040;-69
2022/07/10 11:31:13;;;;;;;0.10;0.10;;;18.00;99.90;;;;;;5052430;28;19944;-68
2022/07/10 11:33:44;;;;;;;0.00;0.00;;;18.00;99.90;;;;;;5069596;28;20040;-68
2022/07/10 11:36:25;;;;;;;0.00;0.00;;;18.00;99.90;;;;;;5083097;28;20040;-68
2022/07/10 11:38:57;;;;;;;0.10;0.10;;;18.10;99.90;;;;;;5071353;28;20506;-68
2022/07/10 11:41:23;;;;;;;0.10;0.10;;;18.10;99.90;;;;;;5056621;28;20499;-69
2022/07/10 11:43:54;;;;;;;0.10;0.10;;;18.10;99.90;;;;;;5038269;28;20049;-68
2022/07/10 11:46:24;;;;;;;0.28;0.28;;;18.10;99.90;;;;;;5061854;28;20047;-68
2022/07/10 11:48:52;;;;;;;0.00;0.00;;;18.10;99.90;;;;;;5081010;28;20040;-68
2022/07/10 11:51:27;;;;;;;0.10;0.10;;;18.20;99.90;;;;;;5078854;28;20508;-68
2022/07/10 11:53:55;;;;;;;0.10;0.10;;;18.20;99.90;;;;;;5049664;28;20090;-68
2022/07/10 11:56:21;;;;;;;0.00;0.00;;;18.20;99.90;;;;;;5079405;28;20048;-68
2022/07/10 11:59:04;;;;;;;0.70;0.20;;;18.30;99.90;;;;;;5051355;28;20037;-69
2022/07/10 12:01:32;;;;;;;0.03;0.03;;;18.30;99.90;;;;;;5086188;28;20056;-68
2022/07/10 12:03:58;;;;;;;0.47;0.20;;;18.30;99.90;;;;;;5071670;28;20578;-68
2022/07/10 12:06:26;;;;;;;0.52;0.52;;;18.40;99.90;;;;;;5059776;28;20051;-68
2022/07/10 12:08:51;;;;;;;0.03;0.03;;;18.50;99.90;;;;;;5060899;28;20506;-68
2022/07/10 12:11:19;;;;;;;0.10;0.10;;;18.50;99.90;;;;;;5083863;28;20080;-68
2022/07/10 12:13:46;;;;;;;0.00;0.00;;;18.60;99.90;;;;;;5055261;28;20638;-68
2022/07/10 12:16:12;;;;;;;0.10;0.10;;;18.80;99.90;;;;;;5053823;28;20044;-68
2022/07/10 12:18:41;;;;;;;0.00;0.00;;;18.90;99.90;;;;;;5064961;28;20037;-68
2022/07/10 12:21:08;;;;;;;0.00;0.00;;;19.00;99.90;;;;;;5050128;28;20139;-68
2022/07/10 12:23:38;;;;;;;0.00;0.00;;;19.10;99.90;;;;;;5056082;28;20060;-68
2022/07/10 12:26:04;;;;;;;0.28;0.28;;;19.40;99.90;;;;;;5079917;28;20044;-68
2022/07/10 12:28:30;;;;;;;0.10;0.10;;;19.50;99.90;;;;;;5071311;28;20095;-68
2022/07/10 12:30:55;;;;;;;0.00;0.00;;;19.80;99.90;;;;;;5064486;28;20268;-68
2022/07/10 12:33:22;;;;;;;0.00;0.00;;;19.80;99.90;;;;;;5055159;28;20453;-68
2022/07/10 12:35:58;;;;;;;0.00;0.00;;;19.80;99.90;;;;;;5034075;28;20120;-68
2022/07/10 12:38:31;;;;;;;0.00;0.00;;;19.90;99.90;;;;;;5083314;28;20036;-68
2022/07/10 12:41:11;;;;;;;2.50;0.45;;;20.00;99.90;;;;;;5061159;28;20044;-68
2022/07/10 12:43:38;;;;;;;0.17;0.17;;;20.10;99.90;;;;;;5054754;28;20043;-69
2022/07/10 12:46:22;;;;;;;0.00;0.00;;;20.10;99.90;;;;;;5064350;28;20091;-69
2022/07/10 12:49:08;;;;;;;0.00;0.00;;;20.30;99.90;;;;;;5058143;28;20833;-69
2022/07/10 12:51:44;;;;;;;0.00;0.00;;;20.20;99.90;;;;;;5080363;28;20045;-68
2022/07/10 12:54:38;;;;;;;0.10;0.10;;;20.20;99.90;;;;;;5077275;28;20053;-68
2022/07/10 12:57:05;;;;;;;0.00;0.00;;;20.30;99.90;;;;;;5068512;28;20033;-68
2022/07/10 12:59:34;;;;;;;0.00;0.00;;;20.30;99.90;;;;;;5042161;28;20121;-68